createdAt,value
2023-01-09T00:03:01.026Z,99.11
2023-01-09T00:06:07.550Z,94.68
2023-01-09T00:09:17.019Z,95.17
2023-01-09T00:12:23.126Z,101.68
2023-01-09T00:15:30.360Z,105.84
2023-01-09T00:18:37.360Z,107.74
2023-01-09T00:21:44.303Z,103.81
2023-01-09T00:24:52.978Z,102.46
2023-01-09T00:27:59.955Z,104.88
2023-01-09T00:31:09.590Z,111.84
2023-01-09T00:34:16.662Z,111.50
2023-01-09T00:37:22.731Z,114.72
2023-01-09T00:40:32.290Z,101.73
2023-01-09T00:43:48.012Z,98.23
2023-01-09T00:47:00.608Z,96.07
2023-01-09T00:50:13.497Z,92.15
2023-01-09T00:53:26.727Z,89.84
2023-01-09T00:56:39.279Z,89.32
2023-01-09T00:59:47.547Z,88.09
2023-01-09T01:02:53.697Z,84.34
2023-01-09T01:06:13.073Z,83.39
2023-01-09T01:09:19.197Z,85.74
2023-01-09T01:12:28.951Z,87.70
2023-01-09T01:15:35.335Z,86.72
2023-01-09T01:18:43.738Z,91.23
2023-01-09T01:21:49.945Z,95.87
2023-01-09T01:24:56.930Z,86.07
2023-01-09T01:28:05.684Z,84.93
2023-01-09T01:31:18.648Z,86.30
2023-01-09T01:34:24.861Z,87.30
2023-01-09T01:37:31.828Z,88.76
2023-01-09T01:40:38.548Z,91.44
2023-01-09T01:44:00.024Z,97.01
2023-01-09T01:47:06.333Z,95.10
2023-01-09T01:50:24.563Z,90.11
2023-01-09T01:53:39.065Z,86.69
2023-01-09T01:56:53.860Z,85.02
2023-01-09T02:00:07.772Z,91.58
2023-01-09T02:03:18.887Z,101.17
2023-01-09T02:06:25.126Z,103.26
2023-01-09T02:09:32.492Z,108.44
2023-01-09T02:12:38.467Z,108.83
2023-01-09T02:16:22.855Z,110.29
2023-01-09T02:20:43.573Z,110.29
2023-01-09T02:24:31.304Z,123.74
2023-01-09T02:28:37.328Z,114.99
2023-01-09T02:32:00.144Z,149.70
2023-01-09T02:35:31.552Z,139.14
2023-01-09T02:38:56.470Z,129.15
2023-01-09T02:42:16.194Z,124.55
2023-01-09T02:45:22.551Z,121.33
2023-01-09T02:48:34.400Z,114.08
2023-01-09T02:51:55.162Z,102.11
2023-01-09T02:55:19.570Z,98.46
2023-01-09T02:58:54.927Z,98.75
2023-01-09T03:02:35.191Z,98.20
2023-01-09T03:05:56.956Z,109.00
2023-01-09T03:09:15.278Z,109.51
2023-01-09T03:12:28.746Z,105.82
2023-01-09T03:15:42.939Z,102.10
2023-01-09T03:18:54.779Z,103.54
2023-01-09T03:22:05.116Z,106.51
2023-01-09T03:25:13.244Z,107.96
2023-01-09T03:28:32.155Z,105.02
2023-01-09T03:31:38.375Z,104.07
2023-01-09T03:34:45.210Z,103.38
2023-01-09T03:37:54.243Z,98.33
2023-01-09T03:41:01.281Z,96.74
2023-01-09T03:44:07.403Z,95.02
2023-01-09T03:47:14.254Z,95.20
2023-01-09T03:50:20.491Z,92.54
2023-01-09T03:53:32.204Z,92.71
2023-01-09T03:56:38.489Z,92.88
2023-01-09T03:59:45.405Z,89.73
2023-01-09T04:02:51.665Z,90.79
2023-01-09T04:05:58.721Z,91.69
2023-01-09T04:09:07.491Z,90.98
2023-01-09T04:12:14.615Z,89.88
2023-01-09T04:15:21.047Z,90.41
2023-01-09T04:18:27.971Z,88.15
2023-01-09T04:21:34.110Z,88.34
2023-01-09T04:24:43.722Z,85.47
2023-01-09T04:27:49.873Z,83.92
2023-01-09T04:30:56.731Z,85.19
2023-01-09T04:34:02.735Z,78.19
2023-01-09T04:37:09.683Z,78.82
2023-01-09T04:40:21.582Z,81.90
2023-01-09T04:43:28.908Z,81.14
2023-01-09T04:46:34.980Z,77.33
2023-01-09T04:49:41.954Z,73.37
2023-01-09T04:52:48.116Z,74.60
2023-01-09T04:55:57.586Z,79.92
2023-01-09T04:59:03.671Z,85.14
2023-01-09T05:02:10.893Z,82.26
2023-01-09T05:05:17.077Z,78.81
2023-01-09T05:08:24.827Z,70.99
2023-01-09T05:11:33.572Z,70.55
2023-01-09T05:14:40.578Z,71.27
2023-01-09T05:17:46.634Z,70.33
2023-01-09T05:20:53.544Z,68.98
2023-01-09T05:23:59.665Z,70.84
2023-01-09T05:27:09.166Z,72.63
2023-01-09T05:30:18.210Z,74.54
2023-01-09T05:33:25.439Z,82.89
2023-01-09T05:36:31.489Z,89.42
2023-01-09T05:39:38.561Z,92.61
2023-01-09T05:42:48.349Z,91.21
2023-01-09T05:45:55.446Z,86.80
2023-01-09T05:49:01.982Z,86.68
2023-01-09T05:52:08.916Z,85.30
2023-01-09T05:55:16.106Z,86.65
2023-01-09T05:58:25.628Z,80.47
2023-01-09T06:01:31.808Z,76.53
2023-01-09T06:04:38.813Z,75.71
2023-01-09T06:07:45.661Z,75.18
2023-01-09T06:10:52.667Z,77.21
2023-01-09T06:14:01.378Z,77.73
2023-01-09T06:17:08.353Z,77.17
2023-01-09T06:20:15.347Z,78.85
2023-01-09T06:23:22.239Z,79.80
2023-01-09T06:26:29.234Z,79.83
2023-01-09T06:29:38.689Z,82.67
2023-01-09T06:32:44.859Z,83.90
2023-01-09T06:35:51.797Z,83.66
2023-01-09T06:38:57.752Z,82.84
2023-01-09T06:42:04.655Z,83.83
2023-01-09T06:45:14.693Z,79.44
2023-01-09T06:48:21.481Z,79.48
2023-01-09T06:51:27.503Z,79.37
2023-01-09T06:54:34.697Z,80.75
2023-01-09T06:57:40.747Z,81.22
2023-01-09T07:00:50.953Z,81.02
2023-01-09T07:03:57.167Z,79.78
2023-01-09T07:07:04.111Z,80.04
2023-01-09T07:10:13.238Z,83.68
2023-01-09T07:13:20.089Z,84.45
2023-01-09T07:16:29.019Z,81.57
2023-01-09T07:19:36.076Z,79.42
2023-01-09T07:22:42.236Z,81.83
2023-01-09T07:25:49.937Z,79.11
2023-01-09T07:28:55.949Z,78.70
2023-01-09T07:32:05.812Z,79.56
2023-01-09T07:35:13.909Z,80.00
2023-01-09T07:38:20.898Z,83.16
2023-01-09T07:41:26.988Z,80.15
2023-01-09T07:44:34.029Z,75.17
2023-01-09T07:47:43.960Z,76.49
2023-01-09T07:50:50.800Z,76.54
2023-01-09T07:53:57.049Z,74.86
2023-01-09T07:57:04.222Z,79.85
2023-01-09T08:00:13.655Z,80.87
2023-01-09T08:03:23.129Z,79.43
2023-01-09T08:06:29.149Z,73.62
2023-01-09T08:09:35.969Z,74.81
2023-01-09T08:12:46.353Z,75.34
2023-01-09T08:15:53.140Z,77.35
2023-01-09T08:19:02.001Z,75.93
2023-01-09T08:22:08.832Z,67.14
2023-01-09T08:25:14.833Z,62.75
2023-01-09T08:28:21.679Z,58.40
2023-01-09T08:31:27.918Z,54.81
2023-01-09T08:34:38.819Z,54.99
2023-01-09T08:37:48.425Z,52.70
2023-01-09T08:40:55.670Z,52.05
2023-01-09T08:44:14.292Z,53.63
2023-01-09T08:47:28.973Z,57.20
2023-01-09T08:50:37.843Z,60.78
2023-01-09T08:53:44.803Z,63.44
2023-01-09T08:56:50.955Z,66.08
2023-01-09T08:59:57.937Z,76.24
2023-01-09T09:03:05.205Z,85.79
2023-01-09T09:06:14.842Z,79.41
2023-01-09T09:09:21.000Z,70.71
2023-01-09T09:12:28.349Z,65.35
2023-01-09T09:15:34.656Z,61.68
2023-01-09T09:18:41.612Z,54.26
2023-01-09T09:21:50.297Z,50.29
2023-01-09T09:24:57.316Z,47.05
2023-01-09T09:28:03.975Z,42.47
2023-01-09T09:31:11.656Z,41.67
2023-01-09T09:34:17.713Z,37.28
2023-01-09T09:37:27.897Z,46.61
2023-01-09T09:41:34.278Z,36.97
2023-01-09T09:45:05.875Z,25.20
2023-01-09T09:48:38.190Z,24.66
2023-01-09T09:52:12.290Z,23.95
2023-01-09T09:55:33.049Z,22.00
2023-01-09T09:58:44.749Z,19.80
2023-01-09T10:02:01.331Z,18.27
2023-01-09T10:05:20.163Z,18.00
2023-01-09T10:08:44.360Z,17.91
2023-01-09T10:12:06.990Z,20.96
2023-01-09T10:15:22.605Z,26.42
2023-01-09T10:18:50.439Z,22.57
2023-01-09T10:22:16.270Z,20.95
2023-01-09T10:25:34.453Z,20.80
2023-01-09T10:29:26.965Z,20.71
2023-01-09T10:33:04.595Z,22.95
2023-01-09T10:37:01.881Z,19.76
2023-01-09T10:40:24.022Z,13.85
2023-01-09T10:43:42.147Z,13.16
2023-01-09T10:46:58.280Z,11.36
2023-01-09T10:50:21.788Z,8.88
2023-01-09T10:53:38.850Z,9.71
2023-01-09T10:56:58.501Z,9.71
2023-01-09T11:00:06.893Z,8.76
2023-01-09T11:03:19.592Z,9.52
2023-01-09T11:06:35.535Z,8.63
2023-01-09T11:10:01.115Z,8.05
2023-01-09T11:13:22.088Z,8.39
2023-01-09T11:16:28.279Z,8.01
2023-01-09T11:19:37.850Z,9.47
2023-01-09T11:22:48.574Z,10.05
2023-01-09T11:25:58.803Z,11.65
2023-01-09T11:29:15.707Z,14.85
2023-01-09T11:32:27.936Z,14.67
2023-01-09T11:35:38.670Z,12.48
2023-01-09T11:38:54.920Z,12.09
2023-01-09T11:42:05.483Z,12.23
2023-01-09T11:45:20.694Z,12.25
2023-01-09T11:48:57.244Z,13.40
2023-01-09T11:52:23.429Z,14.54
2023-01-09T11:55:41.803Z,14.91
2023-01-09T11:58:49.320Z,19.50
2023-01-09T12:02:34.093Z,24.92
2023-01-09T12:06:01.568Z,36.26
2023-01-09T12:09:19.591Z,34.63
2023-01-09T12:12:44.943Z,25.61
2023-01-09T12:16:11.171Z,21.92
2023-01-09T12:20:07.661Z,19.12
2023-01-09T12:23:42.932Z,24.25
2023-01-09T12:27:17.526Z,23.29
2023-01-09T12:30:43.566Z,22.00
2023-01-09T12:34:23.011Z,29.35
2023-01-09T12:38:08.441Z,32.73
2023-01-09T12:41:46.626Z,28.38
2023-01-09T12:45:05.113Z,24.54
2023-01-09T12:48:38.601Z,20.91
2023-01-09T12:51:55.198Z,18.71
2023-01-09T12:55:17.734Z,16.63
2023-01-09T12:58:39.409Z,20.43
2023-01-09T13:01:53.205Z,23.16
2023-01-09T13:05:06.142Z,21.10
2023-01-09T13:08:25.928Z,22.82
2023-01-09T13:11:43.777Z,26.94
2023-01-09T13:14:59.403Z,26.39
2023-01-09T13:18:19.762Z,25.35
2023-01-09T13:21:27.672Z,24.60
2023-01-09T13:24:51.084Z,21.45
2023-01-09T13:28:05.183Z,20.76
2023-01-09T13:31:57.627Z,20.44
2023-01-09T13:35:15.642Z,22.82
2023-01-09T13:38:26.900Z,16.61
2023-01-09T13:41:48.121Z,12.66
2023-01-09T13:45:11.832Z,15.49
2023-01-09T13:48:32.394Z,12.05
2023-01-09T13:52:07.329Z,12.80
2023-01-09T13:55:36.384Z,18.52
2023-01-09T13:59:09.513Z,17.62
2023-01-09T14:02:59.356Z,14.24
2023-01-09T14:06:24.521Z,17.47
2023-01-09T14:09:37.776Z,13.52
2023-01-09T14:12:47.044Z,13.26
2023-01-09T14:16:04.666Z,14.35
2023-01-09T14:19:35.095Z,14.11
2023-01-09T14:22:50.471Z,15.67
2023-01-09T14:26:06.834Z,15.71
2023-01-09T14:29:47.641Z,17.48
2023-01-09T14:33:00.929Z,15.76
2023-01-09T14:36:19.752Z,16.88
2023-01-09T14:39:29.092Z,19.72
2023-01-09T14:42:45.027Z,19.31
2023-01-09T14:45:53.364Z,20.72
2023-01-09T14:49:16.560Z,18.96
2023-01-09T14:52:31.208Z,26.06
2023-01-09T14:55:54.047Z,25.21
2023-01-09T14:59:16.754Z,32.55
2023-01-09T15:02:24.504Z,26.85
2023-01-09T15:05:31.870Z,26.13
2023-01-09T15:08:40.629Z,24.35
2023-01-09T15:11:47.717Z,22.87
2023-01-09T15:15:05.002Z,24.71
2023-01-09T15:18:12.912Z,27.75
2023-01-09T15:21:27.702Z,28.44
2023-01-09T15:24:37.541Z,28.49
2023-01-09T15:27:51.806Z,25.08
2023-01-09T15:31:08.022Z,24.53
2023-01-09T15:34:24.944Z,24.30
2023-01-09T15:37:39.150Z,23.54
2023-01-09T15:40:46.818Z,26.40
2023-01-09T15:43:53.077Z,24.99
2023-01-09T15:47:07.469Z,23.18
2023-01-09T15:50:19.077Z,24.54
2023-01-09T15:53:29.906Z,22.61
2023-01-09T15:56:39.381Z,25.34
2023-01-09T15:59:46.354Z,29.05
2023-01-09T16:03:07.584Z,33.97
2023-01-09T16:06:26.630Z,30.61
2023-01-09T16:09:38.027Z,27.21
2023-01-09T16:12:44.968Z,26.57
2023-01-09T16:15:52.503Z,29.10
2023-01-09T16:19:03.063Z,31.77
2023-01-09T16:22:24.071Z,34.12
2023-01-09T16:25:35.174Z,35.80
2023-01-09T16:28:43.219Z,39.96
2023-01-09T16:31:50.457Z,41.22
2023-01-09T16:35:05.574Z,44.85
2023-01-09T16:38:17.900Z,55.75
2023-01-09T16:41:40.376Z,59.44
2023-01-09T16:44:47.585Z,54.19
2023-01-09T16:47:55.482Z,32.54
2023-01-09T16:51:05.030Z,32.53
2023-01-09T16:54:11.943Z,28.32
2023-01-09T16:57:21.850Z,28.35
2023-01-09T17:00:28.422Z,27.74
2023-01-09T17:03:35.574Z,26.81
2023-01-09T17:06:45.690Z,28.61
2023-01-09T17:09:53.476Z,28.88
2023-01-09T17:12:59.759Z,28.55
2023-01-09T17:16:08.955Z,28.53
2023-01-09T17:19:23.689Z,33.15
2023-01-09T17:22:33.202Z,40.38
2023-01-09T17:25:52.338Z,42.88
2023-01-09T17:28:59.271Z,44.15
2023-01-09T17:32:06.927Z,46.59
2023-01-09T17:35:16.278Z,45.88
2023-01-09T17:38:25.138Z,44.92
2023-01-09T17:41:35.147Z,46.82
2023-01-09T17:44:41.562Z,46.10
2023-01-09T17:47:48.464Z,55.17
2023-01-09T17:50:54.585Z,53.52
2023-01-09T17:54:04.172Z,46.28
2023-01-09T17:57:17.680Z,40.32
2023-01-09T18:00:30.950Z,38.42
2023-01-09T18:03:36.989Z,37.91
2023-01-09T18:06:44.056Z,38.07
2023-01-09T18:09:52.747Z,36.46
2023-01-09T18:13:00.604Z,36.29
2023-01-09T18:16:07.576Z,37.41
2023-01-09T18:19:14.543Z,37.50
2023-01-09T18:22:20.764Z,39.60
2023-01-09T18:25:30.264Z,44.44
2023-01-09T18:28:39.300Z,79.66
2023-01-09T18:31:46.283Z,169.29
2023-01-09T18:34:52.404Z,153.03
2023-01-09T18:37:59.373Z,79.41
2023-01-09T18:41:09.450Z,75.01
2023-01-09T18:44:18.245Z,48.53
2023-01-09T18:47:24.243Z,32.22
2023-01-09T18:50:31.249Z,31.59
2023-01-09T18:53:38.393Z,30.98
2023-01-09T18:56:48.018Z,31.33
2023-01-09T18:59:54.302Z,27.13
2023-01-09T19:03:01.651Z,27.29
2023-01-09T19:06:08.777Z,25.68
2023-01-09T19:09:16.132Z,30.14
2023-01-09T19:12:25.591Z,34.83
2023-01-09T19:15:34.905Z,44.68
2023-01-09T19:18:44.771Z,64.60
2023-01-09T19:21:51.856Z,85.39
2023-01-09T19:24:58.097Z,66.24
2023-01-09T19:28:08.101Z,46.20
2023-01-09T19:31:14.495Z,47.55
2023-01-09T19:34:21.789Z,50.90
2023-01-09T19:37:28.022Z,49.57
2023-01-09T19:40:35.204Z,43.79
2023-01-09T19:43:44.757Z,60.34
2023-01-09T19:46:51.960Z,39.64
2023-01-09T19:49:58.300Z,52.58
2023-01-09T19:53:05.280Z,65.25
2023-01-09T19:56:17.414Z,61.28
2023-01-09T19:59:27.015Z,62.76
2023-01-09T20:02:33.127Z,52.94
2023-01-09T20:05:40.062Z,67.22
2023-01-09T20:08:47.786Z,89.77
2023-01-09T20:11:54.735Z,50.01
2023-01-09T20:15:03.439Z,52.43
2023-01-09T20:18:10.628Z,55.89
2023-01-09T20:24:30.169Z,50.89
2023-01-09T20:27:36.252Z,74.70
2023-01-09T20:30:50.680Z,73.95
2023-01-09T20:33:59.191Z,53.31
2023-01-09T20:37:06.103Z,53.10
2023-01-09T20:40:14.308Z,55.06
2023-01-09T20:43:21.356Z,49.38
2023-01-09T20:46:37.094Z,48.46
2023-01-09T20:49:43.990Z,48.02
2023-01-09T20:52:52.036Z,47.21
2023-01-09T20:56:04.370Z,45.36
2023-01-09T20:59:17.391Z,53.61
2023-01-09T21:02:26.993Z,60.57
2023-01-09T21:05:33.125Z,62.57
2023-01-09T21:08:42.218Z,53.14
2023-01-09T21:11:48.373Z,39.18
2023-01-09T21:14:55.399Z,37.24
2023-01-09T21:18:04.272Z,39.65
2023-01-09T21:21:16.287Z,40.36
2023-01-09T21:24:22.433Z,39.24
2023-01-09T21:27:30.833Z,40.27
2023-01-09T21:30:37.180Z,40.83
2023-01-09T21:33:47.046Z,40.90
2023-01-09T21:36:54.033Z,39.59
2023-01-09T21:40:01.024Z,41.98
2023-01-09T21:43:19.629Z,42.35
2023-01-09T21:46:39.076Z,42.30
2023-01-09T21:49:48.602Z,38.86
2023-01-09T21:52:55.544Z,38.95
2023-01-09T21:56:05.431Z,40.96
2023-01-09T21:59:13.643Z,60.11
2023-01-09T22:02:21.686Z,45.00
2023-01-09T22:05:32.044Z,41.02
2023-01-09T22:08:39.222Z,40.51
2023-01-09T22:11:46.941Z,40.66
2023-01-09T22:14:52.960Z,41.62
2023-01-09T22:17:59.893Z,43.76
2023-01-09T22:21:09.264Z,46.06
2023-01-09T22:24:19.794Z,42.80
2023-01-09T22:27:26.319Z,41.57
2023-01-09T22:30:33.448Z,40.27
2023-01-09T22:33:39.614Z,40.51
2023-01-09T22:36:50.696Z,39.42
2023-01-09T22:39:56.809Z,39.41
2023-01-09T22:43:03.744Z,40.39
2023-01-09T22:46:12.762Z,41.49
2023-01-09T22:49:19.837Z,40.83
2023-01-09T22:52:28.957Z,40.01
2023-01-09T22:55:35.922Z,41.72
2023-01-09T22:58:42.481Z,37.86
2023-01-09T23:01:49.517Z,38.08
2023-01-09T23:04:58.534Z,40.12
2023-01-09T23:08:08.460Z,42.72
2023-01-09T23:11:39.516Z,41.71
2023-01-09T23:14:46.510Z,41.67
2023-01-09T23:17:52.542Z,45.45
2023-01-09T23:21:03.054Z,43.01
2023-01-09T23:24:12.511Z,41.71
2023-01-09T23:27:19.442Z,45.19
2023-01-09T23:30:26.080Z,43.96
2023-01-09T23:33:33.125Z,44.08
2023-01-09T23:36:39.869Z,43.00
2023-01-09T23:39:49.375Z,44.08
2023-01-09T23:43:07.832Z,42.87
2023-01-09T23:46:15.490Z,44.14
2023-01-09T23:49:21.631Z,45.32
2023-01-09T23:52:28.517Z,46.76
2023-01-09T23:55:39.445Z,46.85
2023-01-09T23:58:46.398Z,47.03
